Time;durP1;ratioP1;P1;durP2;ratioP2;P2;SDS_P1;SDS_P2;PMS_P1;PMS_P2;Temp;Humidity;BMP_temperature;BMP_pressure;BME280_temperature;BME280_humidity;BME280_pressure;Samples;Min_cycle;Max_cycle;Signal;HPM_P1;HPM_P2
2022/11/01 00:02:03;;;;;;;74.37;47.10;;;13.50;99.90;;;;;;4922908;29;20476;-79
2022/11/01 00:04:32;;;;;;;72.63;45.80;;;13.50;99.90;;;;;;4920786;29;20527;-79
2022/11/01 00:07:01;;;;;;;66.70;45.93;;;13.60;99.90;;;;;;4920696;29;20966;-79
2022/11/01 00:09:29;;;;;;;72.57;45.70;;;13.60;99.90;;;;;;4921353;29;20471;-79
2022/11/01 00:11:59;;;;;;;70.83;46.13;;;13.60;99.90;;;;;;4920759;29;20481;-79
2022/11/01 00:14:27;;;;;;;69.90;45.57;;;13.50;99.90;;;;;;4920276;29;20456;-79
2022/11/01 00:16:55;;;;;;;72.63;49.00;;;13.50;99.90;;;;;;4920633;29;20452;-79
2022/11/01 00:19:23;;;;;;;72.67;46.67;;;13.50;99.90;;;;;;4920387;29;20954;-78
2022/11/01 00:21:51;;;;;;;73.47;47.67;;;13.50;99.90;;;;;;4921689;29;20486;-79
2022/11/01 00:24:21;;;;;;;69.00;47.17;;;13.50;99.90;;;;;;4920018;29;20515;-79
2022/11/01 00:26:49;;;;;;;73.87;46.73;;;13.50;99.90;;;;;;4921440;29;20781;-79
2022/11/01 00:29:17;;;;;;;71.13;48.00;;;13.50;99.90;;;;;;4921105;29;20451;-79
2022/11/01 00:31:45;;;;;;;58.50;36.70;;;13.50;99.90;;;;;;4920647;29;20483;-79
2022/11/01 00:34:13;;;;;;;72.60;47.40;;;13.50;99.90;;;;;;4920536;29;20507;-79
2022/11/01 00:36:41;;;;;;;74.47;46.87;;;13.50;99.90;;;;;;4920501;29;20467;-79
2022/11/01 00:39:13;;;;;;;72.00;47.67;;;13.50;99.90;;;;;;4919989;29;20452;-79
2022/11/01 00:41:43;;;;;;;67.90;46.77;;;13.50;99.90;;;;;;4919712;29;20484;-79
2022/11/01 00:44:11;;;;;;;73.70;49.07;;;13.50;99.90;;;;;;4921687;29;20459;-79
2022/11/01 00:46:39;;;;;;;81.50;49.47;;;13.40;99.90;;;;;;4921991;29;20544;-79
2022/11/01 00:49:07;;;;;;;74.30;47.80;;;13.40;99.90;;;;;;4920215;29;20512;-79
2022/11/01 00:51:35;;;;;;;71.90;47.63;;;13.40;99.90;;;;;;4921425;29;21013;-79
2022/11/01 00:54:03;;;;;;;70.30;48.03;;;13.40;99.90;;;;;;4919835;29;20512;-80
2022/11/01 00:56:31;;;;;;;74.63;49.17;;;13.40;99.90;;;;;;4920575;29;20870;-79
2022/11/01 00:59:01;;;;;;;77.43;51.00;;;13.40;99.90;;;;;;4921508;29;20460;-79
2022/11/01 01:01:30;;;;;;;75.57;50.47;;;13.40;99.90;;;;;;4923340;29;20465;-80
2022/11/01 01:03:59;;;;;;;77.37;49.57;;;13.40;99.90;;;;;;4921428;29;20500;-79
2022/11/01 01:06:27;;;;;;;71.77;49.40;;;13.40;99.90;;;;;;4923279;29;20440;-79
2022/11/01 01:08:59;;;;;;;70.87;47.80;;;13.40;99.90;;;;;;4923363;29;20452;-79
2022/11/01 01:11:27;;;;;;;75.20;50.27;;;13.40;99.90;;;;;;4922774;29;20820;-80
2022/11/01 01:13:55;;;;;;;74.90;49.77;;;13.40;99.90;;;;;;4921283;29;20464;-80
2022/11/01 01:16:24;;;;;;;78.50;52.07;;;13.40;99.90;;;;;;4920856;29;20468;-79
2022/11/01 01:18:53;;;;;;;77.97;51.73;;;13.40;99.90;;;;;;4921440;29;20456;-79
2022/11/01 01:21:21;;;;;;;74.97;48.33;;;13.30;99.90;;;;;;4920681;29;20471;-79
2022/11/01 01:23:50;;;;;;;71.20;49.87;;;13.30;99.90;;;;;;4919947;29;20528;-79
2022/11/01 01:26:18;;;;;;;80.37;49.73;;;13.30;99.90;;;;;;4921286;29;20478;-79
2022/11/01 01:28:46;;;;;;;75.27;49.77;;;13.30;99.90;;;;;;4920356;29;20449;-79
2022/11/01 01:31:14;;;;;;;76.90;50.37;;;13.30;99.90;;;;;;4921232;29;20876;-79
2022/11/01 01:33:44;;;;;;;78.77;50.83;;;13.30;99.90;;;;;;4919503;29;20807;-79
2022/11/01 01:36:13;;;;;;;77.23;51.97;;;13.30;99.90;;;;;;4920785;29;20445;-79
2022/11/01 01:38:41;;;;;;;80.40;54.10;;;13.30;99.90;;;;;;4920460;29;20441;-79
2022/11/01 01:43:54;;;;;;;71.50;49.37;;;13.30;99.90;;;;;;4920394;29;20460;-79
2022/11/01 01:46:22;;;;;;;74.73;51.10;;;13.30;99.90;;;;;;4919080;29;20445;-79
2022/11/01 01:48:56;;;;;;;77.47;51.10;;;13.30;99.90;;;;;;4918279;29;20472;-79
2022/11/01 01:51:27;;;;;;;72.83;48.33;;;13.30;99.90;;;;;;4919667;29;20464;-79
2022/11/01 01:53:57;;;;;;;72.10;49.73;;;13.30;99.90;;;;;;4917979;29;20453;-79
2022/11/01 01:56:29;;;;;;;77.43;52.10;;;13.30;99.90;;;;;;4918045;29;20902;-79
2022/11/01 01:59:02;;;;;;;77.80;50.43;;;13.30;99.90;;;;;;4919744;29;20449;-79
2022/11/01 02:01:31;;;;;;;72.03;48.90;;;13.30;99.90;;;;;;4919690;29;20853;-79
2022/11/01 02:04:03;;;;;;;73.93;48.80;;;13.30;99.90;;;;;;4917902;29;20507;-79
2022/11/01 02:06:33;;;;;;;79.93;51.00;;;13.30;99.90;;;;;;4919247;29;20429;-79
2022/11/01 02:09:04;;;;;;;77.50;49.13;;;13.30;99.90;;;;;;4918571;29;20448;-78
2022/11/01 02:11:32;;;;;;;73.80;49.60;;;13.30;99.90;;;;;;4920603;29;20472;-79
2022/11/01 02:14:01;;;;;;;77.07;49.03;;;13.30;99.90;;;;;;4921018;29;20448;-79
2022/11/01 02:16:40;;;;;;;65.60;47.83;;;13.30;99.90;;;;;;4918670;29;20539;-79
2022/11/01 02:19:49;;;;;;;71.20;48.40;;;13.30;99.90;;;;;;4918840;29;20448;-79
2022/11/01 02:22:20;;;;;;;71.40;48.57;;;13.30;99.90;;;;;;4909316;29;20512;-79
2022/11/01 02:25:20;;;;;;;68.03;49.87;;;13.30;99.90;;;;;;4918651;29;20451;-79
2022/11/01 02:28:07;;;;;;;73.23;49.00;;;13.30;99.90;;;;;;4918546;29;20436;-79
2022/11/01 02:30:43;;;;;;;68.97;48.20;;;13.30;99.90;;;;;;4917599;29;20457;-79
2022/11/01 02:33:27;;;;;;;68.13;48.50;;;13.30;99.90;;;;;;4917842;29;20444;-79
2022/11/01 02:36:02;;;;;;;65.80;48.37;;;13.30;99.90;;;;;;4917602;29;20452;-79
2022/11/01 02:38:38;;;;;;;64.43;47.87;;;13.30;99.90;;;;;;4917565;29;20451;-79
2022/11/01 02:41:11;;;;;;;66.30;48.10;;;13.30;99.90;;;;;;4917639;29;20486;-79
2022/11/01 02:43:48;;;;;;;66.07;49.07;;;13.30;99.90;;;;;;4919279;29;20483;-79
2022/11/01 02:49:07;;;;;;;66.67;46.53;;;13.30;99.90;;;;;;4917301;29;20456;-79
2022/11/01 02:51:37;;;;;;;62.93;49.20;;;13.30;99.90;;;;;;4917015;29;20472;-79
2022/11/01 02:54:06;;;;;;;68.20;47.23;;;13.30;99.90;;;;;;4919108;29;20789;-79
2022/11/01 02:56:35;;;;;;;67.70;47.27;;;13.30;99.90;;;;;;4918097;29;20452;-79
2022/11/01 02:59:04;;;;;;;60.63;45.37;;;13.30;99.90;;;;;;4918322;29;20528;-79
2022/11/01 03:01:34;;;;;;;76.83;45.40;;;13.20;99.90;;;;;;4919204;29;20476;-79
2022/11/01 03:04:03;;;;;;;67.63;47.63;;;13.30;99.90;;;;;;4920772;29;20495;-79
2022/11/01 03:06:37;;;;;;;63.73;46.37;;;13.30;99.90;;;;;;4918620;29;20455;-79
2022/11/01 03:09:08;;;;;;;60.27;43.80;;;13.30;99.90;;;;;;4918691;29;20456;-79
2022/11/01 03:11:51;;;;;;;59.90;45.43;;;13.30;99.90;;;;;;4921675;29;20831;-79
2022/11/01 03:14:26;;;;;;;64.20;47.70;;;13.30;99.90;;;;;;4919705;29;20455;-79
2022/11/01 03:16:59;;;;;;;59.30;45.97;;;13.30;99.90;;;;;;4919888;29;20439;-79
2022/11/01 03:19:40;;;;;;;61.63;46.27;;;13.30;99.90;;;;;;4918393;29;20444;-79
2022/11/01 03:22:15;;;;;;;58.97;44.73;;;13.30;99.90;;;;;;4923752;29;20834;-80
2022/11/01 03:24:48;;;;;;;62.30;45.97;;;13.30;99.90;;;;;;4924992;29;20468;-79
2022/11/01 03:27:24;;;;;;;59.63;44.87;;;13.30;99.90;;;;;;4925369;29;20453;-80
2022/11/01 03:29:58;;;;;;;56.80;42.73;;;13.30;99.90;;;;;;4923866;29;20420;-79
2022/11/01 03:32:31;;;;;;;55.07;45.07;;;13.30;99.90;;;;;;4922872;29;20519;-79
2022/11/01 03:35:03;;;;;;;56.93;43.63;;;13.30;99.90;;;;;;4921921;29;20452;-79
2022/11/01 03:37:34;;;;;;;56.90;44.03;;;13.30;99.90;;;;;;4923210;29;20430;-79
2022/11/01 03:40:06;;;;;;;54.40;41.20;;;13.30;99.90;;;;;;4922695;29;20451;-79
2022/11/01 03:42:36;;;;;;;56.37;43.07;;;13.30;99.90;;;;;;4924546;29;20460;-79
2022/11/01 03:45:09;;;;;;;58.93;44.03;;;13.30;99.90;;;;;;4923365;29;20990;-79
2022/11/01 03:47:37;;;;;;;53.57;44.70;;;13.30;99.90;;;;;;4923755;29;20440;-79
2022/11/01 03:50:14;;;;;;;56.17;44.43;;;13.30;99.90;;;;;;4921911;29;20463;-79
2022/11/01 03:52:44;;;;;;;52.47;42.20;;;13.30;99.90;;;;;;4923070;29;20459;-80
2022/11/01 03:55:19;;;;;;;57.30;44.03;;;13.30;99.90;;;;;;4923114;29;20464;-79
2022/11/01 03:57:47;;;;;;;54.77;43.40;;;13.30;99.90;;;;;;4922242;29;20770;-79
2022/11/01 04:00:18;;;;;;;43.50;34.67;;;13.30;99.90;;;;;;4922203;29;20463;-79
2022/11/01 04:02:46;;;;;;;53.43;41.20;;;13.30;99.90;;;;;;4922018;29;20472;-79
2022/11/01 04:05:15;;;;;;;57.00;42.60;;;13.30;99.90;;;;;;4921678;29;20475;-79
2022/11/01 04:07:45;;;;;;;51.80;40.57;;;13.30;99.90;;;;;;4922649;29;20448;-79
2022/11/01 04:10:14;;;;;;;52.93;40.17;;;13.30;99.90;;;;;;4923090;29;20440;-79
2022/11/01 04:12:45;;;;;;;57.17;44.37;;;13.30;99.90;;;;;;4921195;29;20476;-79
2022/11/01 04:20:51;;;;;;;51.47;43.47;;;13.30;99.90;;;;;;4921935;29;20548;-80
2022/11/01 04:23:21;;;;;;;60.93;46.50;;;13.40;99.90;;;;;;4921776;29;20552;-79
2022/11/01 04:25:49;;;;;;;58.80;47.00;;;13.40;99.90;;;;;;4921571;29;20449;-79
2022/11/01 04:28:18;;;;;;;53.23;41.30;;;13.40;99.90;;;;;;4923468;29;20452;-79
2022/11/01 04:30:46;;;;;;;46.60;37.63;;;13.40;99.90;;;;;;4922831;29;20831;-80
2022/11/01 04:33:14;;;;;;;46.90;37.77;;;13.40;99.90;;;;;;4926772;29;20472;-80
2022/11/01 04:35:42;;;;;;;44.30;37.27;;;13.40;99.90;;;;;;4928021;29;20451;-80
2022/11/01 04:38:11;;;;;;;44.47;36.97;;;13.40;99.90;;;;;;4927804;29;20448;-79
2022/11/01 04:40:42;;;;;;;45.10;36.27;;;13.40;99.90;;;;;;4925877;29;20467;-80
2022/11/01 04:43:11;;;;;;;45.83;35.07;;;13.40;99.90;;;;;;4925500;29;20452;-79
2022/11/01 04:45:39;;;;;;;46.13;37.97;;;13.40;99.90;;;;;;4926212;29;21032;-80
2022/11/01 04:48:11;;;;;;;46.87;35.07;;;13.40;99.90;;;;;;4925304;29;20461;-80
2022/11/01 04:50:40;;;;;;;44.30;35.17;;;13.50;99.90;;;;;;4925395;29;20798;-80
2022/11/01 04:53:08;;;;;;;43.77;32.73;;;13.50;99.90;;;;;;4923942;29;20449;-80
2022/11/01 04:55:37;;;;;;;39.37;32.80;;;13.50;99.90;;;;;;4923910;29;20899;-80
2022/11/01 04:58:07;;;;;;;43.20;33.00;;;13.50;99.90;;;;;;4924286;29;20452;-80
2022/11/01 05:00:35;;;;;;;37.67;33.23;;;13.60;99.90;;;;;;4924248;29;20449;-79
2022/11/01 05:03:05;;;;;;;40.50;33.27;;;13.50;99.90;;;;;;4922966;29;20460;-79
2022/11/01 05:05:35;;;;;;;38.47;30.80;;;13.50;99.90;;;;;;4922292;29;20500;-79
2022/11/01 05:08:06;;;;;;;39.70;33.40;;;13.60;99.90;;;;;;4922105;29;20437;-80
2022/11/01 05:10:36;;;;;;;37.20;30.60;;;13.50;99.90;;;;;;4923579;29;20428;-79
2022/11/01 05:13:06;;;;;;;41.37;32.70;;;13.50;99.90;;;;;;4923171;29;20795;-79
2022/11/01 05:15:35;;;;;;;36.73;29.50;;;13.60;99.90;;;;;;4922987;29;20503;-79
2022/11/01 05:18:10;;;;;;;37.80;32.20;;;13.60;99.90;;;;;;4921703;29;20542;-80
2022/11/01 05:20:38;;;;;;;37.60;31.00;;;13.60;99.90;;;;;;4922773;29;20441;-79
2022/11/01 05:23:07;;;;;;;41.03;30.30;;;13.60;99.90;;;;;;4920763;29;21004;-79
2022/11/01 05:25:35;;;;;;;42.10;30.60;;;13.60;99.90;;;;;;4920679;29;20477;-79
2022/11/01 05:28:08;;;;;;;33.23;27.80;;;13.60;99.90;;;;;;4921713;29;20764;-79
2022/11/01 05:30:37;;;;;;;34.13;28.70;;;13.60;99.90;;;;;;4919278;29;20513;-79
2022/11/01 05:33:06;;;;;;;32.93;29.07;;;13.60;99.90;;;;;;4920421;29;20491;-79
2022/11/01 05:35:35;;;;;;;33.80;29.57;;;13.60;99.90;;;;;;4918730;29;20459;-79
2022/11/01 05:38:05;;;;;;;46.53;39.10;;;13.60;99.90;;;;;;4918800;29;20460;-79
2022/11/01 05:40:33;;;;;;;39.60;35.30;;;13.50;99.90;;;;;;4919433;29;20563;-79
2022/11/01 05:43:01;;;;;;;37.03;30.63;;;13.50;99.90;;;;;;4921033;29;20517;-79
2022/11/01 05:45:31;;;;;;;35.80;31.90;;;13.50;99.90;;;;;;4918442;29;20480;-79
2022/11/01 05:48:02;;;;;;;35.43;30.80;;;13.50;99.90;;;;;;4922344;29;20451;-79
2022/11/01 05:50:31;;;;;;;31.73;28.30;;;13.50;99.90;;;;;;4922246;29;20429;-79
2022/11/01 05:53:07;;;;;;;31.03;26.63;;;13.50;99.90;;;;;;4921604;29;20453;-79
2022/11/01 05:55:36;;;;;;;28.37;24.40;;;13.50;99.90;;;;;;4920177;29;20487;-79
2022/11/01 05:58:05;;;;;;;29.47;24.07;;;13.50;99.90;;;;;;4920967;29;20436;-79
2022/11/01 06:00:35;;;;;;;28.57;23.87;;;13.50;99.90;;;;;;4921023;29;20460;-79
2022/11/01 06:03:04;;;;;;;25.27;22.67;;;13.50;99.90;;;;;;4920598;29;20456;-79
2022/11/01 06:05:33;;;;;;;24.83;22.20;;;13.50;99.90;;;;;;4929441;29;20476;-79
2022/11/01 06:08:02;;;;;;;26.33;22.40;;;13.40;99.90;;;;;;4927101;29;20966;-80
2022/11/01 06:10:31;;;;;;;28.00;23.20;;;13.40;99.90;;;;;;4921972;29;20519;-80
2022/11/01 06:13:00;;;;;;;22.43;19.50;;;13.50;99.90;;;;;;4923804;29;20528;-80
2022/11/01 06:15:28;;;;;;;24.87;22.07;;;13.40;99.90;;;;;;4921626;29;20437;-80
2022/11/01 06:18:02;;;;;;;25.90;21.77;;;13.40;99.90;;;;;;4929117;29;20452;-80
2022/11/01 06:20:32;;;;;;;28.47;24.33;;;13.40;99.90;;;;;;4926460;29;20444;-80
2022/11/01 06:23:00;;;;;;;25.90;22.17;;;13.40;99.90;;;;;;4929248;29;20448;-80
2022/11/01 06:25:29;;;;;;;21.77;19.47;;;13.40;99.90;;;;;;4928693;29;20472;-80
2022/11/01 06:27:57;;;;;;;20.70;18.60;;;13.40;99.90;;;;;;4926260;29;20512;-80
2022/11/01 06:30:25;;;;;;;20.40;17.53;;;13.40;99.90;;;;;;4932890;29;20459;-80
2022/11/01 06:32:58;;;;;;;26.10;22.70;;;13.40;99.90;;;;;;4927748;29;20468;-80
2022/11/01 06:35:28;;;;;;;21.30;19.10;;;13.40;99.90;;;;;;4925847;29;20447;-80
2022/11/01 06:38:02;;;;;;;20.43;16.40;;;13.40;99.90;;;;;;4922227;29;20472;-80
2022/11/01 06:40:31;;;;;;;19.73;15.13;;;13.40;99.90;;;;;;4924909;29;20439;-80
2022/11/01 06:43:00;;;;;;;20.90;14.93;;;13.50;99.90;;;;;;4922411;29;20448;-80
2022/11/01 06:45:29;;;;;;;16.83;14.40;;;13.50;99.90;;;;;;4921776;29;20465;-80
2022/11/01 06:47:58;;;;;;;17.50;13.93;;;13.50;99.90;;;;;;4922622;29;20477;-80
2022/11/01 06:50:28;;;;;;;20.77;13.80;;;13.50;99.90;;;;;;4921011;29;20461;-80
2022/11/01 06:52:57;;;;;;;13.13;11.93;;;13.60;99.90;;;;;;4920797;29;20503;-80
2022/11/01 06:55:26;;;;;;;15.50;12.53;;;13.60;99.90;;;;;;4925004;29;20519;-80
2022/11/01 06:57:55;;;;;;;13.00;11.70;;;13.60;99.90;;;;;;4927715;29;20532;-80
2022/11/01 07:00:23;;;;;;;14.77;11.50;;;13.70;99.90;;;;;;4926707;29;20471;-80
2022/11/01 07:02:58;;;;;;;14.67;11.03;;;13.70;99.90;;;;;;4926744;29;20474;-80
2022/11/01 07:05:26;;;;;;;11.50;10.20;;;13.80;99.90;;;;;;4927615;29;20485;-80
2022/11/01 07:08:01;;;;;;;13.13;10.90;;;13.80;99.90;;;;;;4928119;29;20424;-79
2022/11/01 07:10:30;;;;;;;11.50;10.30;;;13.90;99.90;;;;;;4927772;29;20429;-79
2022/11/01 07:12:59;;;;;;;12.30;10.10;;;13.90;99.90;;;;;;4928000;29;20460;-80
2022/11/01 07:15:27;;;;;;;15.13;11.10;;;13.90;99.90;;;;;;4928065;29;20456;-81
2022/11/01 07:17:56;;;;;;;10.90;9.37;;;14.00;99.90;;;;;;4928956;29;20456;-80
2022/11/01 07:20:25;;;;;;;10.47;9.23;;;14.00;99.90;;;;;;4928396;29;20503;-81
2022/11/01 07:22:59;;;;;;;12.43;9.73;;;14.10;99.90;;;;;;4927136;29;20903;-80
2022/11/01 07:25:29;;;;;;;13.20;9.60;;;14.10;99.90;;;;;;4927575;29;20470;-81
2022/11/01 07:27:58;;;;;;;11.43;9.13;;;14.10;99.90;;;;;;4926554;29;20484;-81
2022/11/01 07:30:26;;;;;;;9.80;8.73;;;14.20;99.90;;;;;;4925423;29;20828;-81
2022/11/01 07:32:56;;;;;;;10.40;8.50;;;14.20;99.90;;;;;;4929627;29;20470;-81
2022/11/01 07:35:25;;;;;;;9.40;8.07;;;14.30;99.90;;;;;;4928332;29;20483;-81
2022/11/01 07:37:57;;;;;;;11.13;8.10;;;14.30;99.90;;;;;;4928525;29;20452;-81
2022/11/01 07:40:28;;;;;;;12.07;8.83;;;14.30;99.90;;;;;;4930511;29;20507;-81
2022/11/01 07:42:58;;;;;;;11.73;8.20;;;14.40;99.90;;;;;;4926892;29;20468;-81
2022/11/01 07:45:28;;;;;;;10.90;8.97;;;14.40;99.90;;;;;;4927819;29;20479;-80
2022/11/01 07:48:01;;;;;;;8.70;7.70;;;14.50;99.90;;;;;;4928376;29;20480;-81
2022/11/01 07:50:30;;;;;;;8.63;6.70;;;14.50;99.90;;;;;;4928950;29;20830;-81
2022/11/01 07:53:02;;;;;;;10.80;8.40;;;14.50;99.90;;;;;;4927113;29;20875;-81
2022/11/01 07:55:31;;;;;;;11.23;7.90;;;14.60;99.90;;;;;;4927978;29;20539;-81
2022/11/01 07:57:59;;;;;;;10.87;7.33;;;14.60;99.90;;;;;;4926000;29;20783;-80
2022/11/01 08:00:28;;;;;;;8.70;7.50;;;14.70;99.90;;;;;;4925866;29;20535;-81
2022/11/01 08:03:01;;;;;;;8.20;7.17;;;14.70;99.90;;;;;;4927459;29;20476;-80
2022/11/01 08:05:30;;;;;;;10.20;7.70;;;14.80;99.90;;;;;;4927953;29;20428;-81
2022/11/01 08:07:58;;;;;;;10.03;7.03;;;14.80;99.90;;;;;;4925601;29;20515;-80
2022/11/01 08:10:28;;;;;;;8.90;7.40;;;14.90;99.90;;;;;;4925414;29;20524;-81
2022/11/01 08:13:04;;;;;;;9.20;6.90;;;14.90;99.90;;;;;;4924661;29;20480;-81
2022/11/01 08:15:33;;;;;;;9.17;7.70;;;14.90;99.90;;;;;;4927470;29;20504;-79
2022/11/01 08:18:01;;;;;;;8.80;6.80;;;15.00;99.90;;;;;;4926537;29;20444;-81
2022/11/01 08:20:30;;;;;;;13.97;7.93;;;15.00;99.90;;;;;;4924251;29;20456;-81
2022/11/01 08:22:58;;;;;;;10.60;7.43;;;15.10;99.90;;;;;;4927209;29;20441;-80
2022/11/01 08:25:30;;;;;;;8.93;6.30;;;15.10;99.90;;;;;;4927559;29;20429;-81
2022/11/01 08:28:02;;;;;;;10.00;6.63;;;15.10;99.90;;;;;;4926157;29;20491;-80
2022/11/01 08:30:30;;;;;;;7.63;5.30;;;15.20;99.90;;;;;;4926919;29;20456;-80
2022/11/01 08:32:59;;;;;;;10.50;4.80;;;15.20;99.90;;;;;;4928894;29;20444;-81
2022/11/01 08:35:28;;;;;;;17.60;4.20;;;15.30;99.90;;;;;;4928201;29;20452;-81
2022/11/01 08:37:57;;;;;;;4.90;3.10;;;15.30;99.90;;;;;;4926395;29;20893;-81
2022/11/01 08:40:27;;;;;;;6.27;3.03;;;15.40;99.90;;;;;;4925570;29;20800;-80
2022/11/01 08:42:55;;;;;;;3.87;2.10;;;15.40;99.90;;;;;;4926086;29;20468;-81
2022/11/01 08:45:25;;;;;;;5.13;2.17;;;15.50;99.90;;;;;;4927180;29;20457;-81
2022/11/01 08:47:58;;;;;;;5.87;2.00;;;15.50;99.90;;;;;;4926700;29;20487;-81
2022/11/01 08:50:26;;;;;;;3.90;2.10;;;15.50;99.90;;;;;;4927872;29;20775;-80
2022/11/01 08:52:54;;;;;;;4.67;1.83;;;15.50;99.90;;;;;;4926697;29;20476;-81
2022/11/01 08:55:23;;;;;;;4.43;1.80;;;15.50;99.90;;;;;;4929472;29;20531;-80
2022/11/01 08:57:51;;;;;;;5.37;1.80;;;15.50;99.90;;;;;;4927829;29;20471;-80
2022/11/01 09:00:20;;;;;;;4.33;1.50;;;15.50;99.90;;;;;;4926135;29;20456;-80
2022/11/01 09:02:49;;;;;;;3.60;1.50;;;15.50;99.90;;;;;;4928011;29;20475;-80
2022/11/01 09:05:18;;;;;;;3.33;1.87;;;15.50;99.90;;;;;;4926002;29;20496;-80
2022/11/01 09:07:46;;;;;;;3.20;1.90;;;15.50;99.90;;;;;;4925415;29;20895;-80
2022/11/01 09:10:15;;;;;;;3.70;1.60;;;15.50;99.90;;;;;;4926512;29;20454;-80
2022/11/01 09:12:43;;;;;;;3.47;1.77;;;15.50;99.90;;;;;;4926593;29;20495;-80
2022/11/01 09:15:11;;;;;;;5.07;2.13;;;15.60;99.90;;;;;;4925190;29;20460;-81
2022/11/01 09:17:39;;;;;;;3.50;1.70;;;15.60;99.90;;;;;;4925039;29;20456;-80
2022/11/01 09:20:10;;;;;;;4.10;1.40;;;15.60;99.90;;;;;;4927198;29;20462;-80
2022/11/01 09:22:38;;;;;;;3.83;1.60;;;15.60;99.90;;;;;;4925353;29;20480;-79
2022/11/01 09:25:07;;;;;;;5.33;1.57;;;15.70;99.90;;;;;;4921455;29;20500;-79
2022/11/01 09:27:35;;;;;;;5.30;1.60;;;15.70;99.90;;;;;;4917780;29;20472;-78
2022/11/01 09:30:03;;;;;;;3.43;1.50;;;15.70;99.90;;;;;;4918866;29;20452;-79
2022/11/01 09:32:31;;;;;;;6.83;2.43;;;15.80;99.90;;;;;;4918688;29;20475;-78
2022/11/01 09:35:00;;;;;;;4.13;2.57;;;15.80;99.90;;;;;;4917319;29;20460;-78
2022/11/01 09:37:29;;;;;;;4.63;2.03;;;15.80;99.90;;;;;;4918452;29;20950;-79
2022/11/01 09:39:57;;;;;;;4.50;1.37;;;15.80;99.90;;;;;;4921338;29;20473;-80
2022/11/01 09:42:31;;;;;;;5.43;1.70;;;15.80;99.90;;;;;;4922150;29;20483;-80
2022/11/01 09:45:02;;;;;;;5.87;1.50;;;15.90;99.90;;;;;;4921985;29;20444;-80
2022/11/01 09:47:32;;;;;;;6.33;2.23;;;15.90;99.90;;;;;;4922674;29;20873;-80
2022/11/01 09:50:05;;;;;;;9.60;2.27;;;15.90;99.90;;;;;;4922534;29;20448;-80
2022/11/01 09:52:35;;;;;;;6.83;1.63;;;15.90;99.90;;;;;;4923079;29;20468;-79
2022/11/01 09:55:03;;;;;;;3.97;1.47;;;16.00;99.90;;;;;;4920755;29;20464;-80
2022/11/01 09:57:35;;;;;;;11.03;2.03;;;16.00;99.90;;;;;;4920902;29;20445;-79
2022/11/01 10:00:12;;;;;;;8.87;2.00;;;16.00;99.90;;;;;;4920802;29;20849;-79
2022/11/01 10:03:15;;;;;;;4.80;1.70;;;16.00;99.90;;;;;;4921595;29;20572;-80
2022/11/01 10:05:51;;;;;;;5.63;2.00;;;16.10;99.90;;;;;;4922495;29;20477;-79
2022/11/01 10:08:44;;;;;;;8.30;2.10;;;16.10;99.90;;;;;;4922762;29;20472;-80
2022/11/01 10:11:38;;;;;;;5.53;1.70;;;16.10;99.90;;;;;;4923217;29;20469;-79
2022/11/01 10:14:18;;;;;;;6.33;2.03;;;16.10;99.90;;;;;;4914840;29;20453;-79
2022/11/01 10:16:57;;;;;;;8.77;2.00;;;16.20;99.90;;;;;;4923164;29;20439;-80
2022/11/01 10:19:29;;;;;;;6.07;1.97;;;16.20;99.90;;;;;;4921431;29;20448;-79
2022/11/01 10:22:04;;;;;;;5.23;2.07;;;16.20;99.90;;;;;;4920126;29;21069;-79
2022/11/01 10:24:39;;;;;;;8.77;1.93;;;16.20;99.90;;;;;;4919517;29;20451;-78
2022/11/01 10:27:18;;;;;;;8.90;2.23;;;16.30;99.90;;;;;;4921432;29;20546;-80
2022/11/01 10:29:54;;;;;;;7.33;2.07;;;16.30;99.90;;;;;;4919959;29;20448;-80
2022/11/01 10:32:31;;;;;;;6.10;2.30;;;16.30;99.90;;;;;;4922196;29;20467;-79
2022/11/01 10:35:03;;;;;;;9.43;2.67;;;16.30;99.90;;;;;;4921249;29;20420;-79
2022/11/01 10:37:37;;;;;;;10.53;2.70;;;16.40;99.90;;;;;;4920419;29;20453;-79
2022/11/01 10:40:25;;;;;;;9.43;2.73;;;16.40;99.90;;;;;;4920993;29;20480;-79
2022/11/01 10:42:54;;;;;;;10.23;2.50;;;16.40;99.90;;;;;;4919625;29;20479;-80
2022/11/01 10:45:22;;;;;;;10.57;2.33;;;16.40;99.90;;;;;;4921581;29;20443;-79
2022/11/01 10:47:55;;;;;;;8.10;2.33;;;16.40;99.90;;;;;;4921637;29;20483;-80
2022/11/01 10:50:27;;;;;;;7.23;2.30;;;16.50;99.90;;;;;;4921739;29;20448;-79
2022/11/01 10:52:59;;;;;;;7.43;2.90;;;16.50;99.90;;;;;;4920425;29;20484;-80
2022/11/01 10:55:33;;;;;;;6.90;2.57;;;16.50;99.90;;;;;;4922359;29;20464;-79
2022/11/01 10:58:05;;;;;;;9.63;2.60;;;16.50;99.90;;;;;;4921242;29;20431;-80
2022/11/01 11:00:40;;;;;;;11.83;3.10;;;16.60;99.90;;;;;;4921803;29;20475;-80
2022/11/01 11:03:17;;;;;;;6.70;2.60;;;16.60;99.90;;;;;;4919159;29;20910;-77
2022/11/01 11:05:50;;;;;;;8.87;2.23;;;16.60;99.90;;;;;;4918773;29;20563;-80
2022/11/01 11:08:21;;;;;;;7.73;2.90;;;16.60;99.90;;;;;;4920187;29;20540;-79
2022/11/01 11:10:51;;;;;;;11.47;3.07;;;16.60;99.90;;;;;;4922463;29;20519;-79
2022/11/01 11:13:21;;;;;;;8.03;2.70;;;16.60;99.90;;;;;;4923302;29;20404;-80
2022/11/01 11:15:52;;;;;;;12.60;2.77;;;16.60;99.90;;;;;;4921419;29;20452;-81
2022/11/01 11:18:25;;;;;;;9.00;2.57;;;16.60;99.90;;;;;;4921919;29;20943;-79
2022/11/01 11:20:56;;;;;;;7.80;2.50;;;16.70;99.90;;;;;;4922084;29;20511;-80
2022/11/01 11:23:28;;;;;;;7.47;2.13;;;16.70;99.90;;;;;;4924280;29;20480;-80
2022/11/01 11:26:03;;;;;;;7.43;2.43;;;16.70;99.90;;;;;;4924221;29;20395;-80
2022/11/01 11:28:34;;;;;;;5.00;2.30;;;16.80;99.90;;;;;;4921933;29;20511;-80
2022/11/01 11:31:13;;;;;;;7.93;2.20;;;16.80;99.90;;;;;;4922848;29;20460;-80
2022/11/01 11:33:50;;;;;;;6.10;2.17;;;16.80;99.90;;;;;;4922217;29;20439;-79
2022/11/01 11:36:26;;;;;;;9.03;3.33;;;16.80;99.90;;;;;;4921373;29;20444;-80
2022/11/01 11:38:55;;;;;;;9.83;2.33;;;16.80;99.90;;;;;;4922595;29;20457;-80
2022/11/01 11:41:30;;;;;;;7.40;2.67;;;16.80;99.90;;;;;;4922433;29;20997;-80
2022/11/01 11:43:58;;;;;;;7.90;2.77;;;16.90;99.90;;;;;;4925527;29;20451;-80
2022/11/01 11:46:27;;;;;;;7.80;2.80;;;16.90;99.90;;;;;;4924288;29;20456;-80
2022/11/01 11:48:59;;;;;;;13.53;2.80;;;16.90;99.90;;;;;;4924613;29;20476;-79
2022/11/01 11:51:29;;;;;;;10.63;2.30;;;16.90;99.90;;;;;;4925603;29;20464;-79
2022/11/01 11:54:21;;;;;;;6.90;2.20;;;16.90;99.90;;;;;;4924977;29;20864;-79
2022/11/01 11:57:07;;;;;;;10.60;2.50;;;16.90;99.90;;;;;;4925017;29;20499;-79
2022/11/01 11:59:35;;;;;;;10.47;2.20;;;16.90;99.90;;;;;;4924128;29;20440;-80
2022/11/01 12:02:06;;;;;;;8.40;2.10;;;16.90;99.90;;;;;;4924004;29;20872;-81
2022/11/01 12:04:45;;;;;;;7.03;2.30;;;16.90;99.90;;;;;;4924291;29;20506;-80
2022/11/01 12:07:31;;;;;;;5.73;2.10;;;16.90;99.90;;;;;;4925786;29;20432;-79
2022/11/01 12:10:02;;;;;;;6.83;2.60;;;16.90;99.90;;;;;;4923995;29;20453;-79
2022/11/01 12:12:33;;;;;;;8.77;2.40;;;16.90;99.90;;;;;;4923743;29;20547;-79
2022/11/01 12:15:02;;;;;;;10.40;2.60;;;17.00;99.90;;;;;;4922819;29;20512;-79
2022/11/01 12:17:36;;;;;;;9.20;2.50;;;17.00;99.90;;;;;;4924695;29;20474;-79
2022/11/01 12:20:14;;;;;;;10.33;2.77;;;17.00;99.90;;;;;;4922865;29;20456;-79
2022/11/01 12:22:50;;;;;;;11.23;2.27;;;17.10;99.90;;;;;;4922240;29;20973;-79
2022/11/01 12:25:21;;;;;;;8.77;2.40;;;17.10;99.90;;;;;;4921627;29;20520;-79
2022/11/01 12:27:59;;;;;;;10.13;2.90;;;17.10;99.90;;;;;;4923803;29;20484;-79
2022/11/01 12:30:31;;;;;;;8.73;2.90;;;17.10;99.90;;;;;;4923005;29;20421;-79
2022/11/01 12:33:04;;;;;;;10.63;2.60;;;17.10;99.90;;;;;;4921644;29;20458;-79
2022/11/01 12:35:36;;;;;;;9.63;3.10;;;17.10;99.90;;;;;;4920587;29;20543;-79
2022/11/01 12:38:32;;;;;;;12.67;3.17;;;17.20;99.90;;;;;;4922132;29;20443;-79
2022/11/01 12:41:13;;;;;;;6.70;2.50;;;17.20;99.90;;;;;;4920244;29;20488;-79
2022/11/01 12:43:58;;;;;;;7.80;2.80;;;17.20;99.90;;;;;;4921311;29;20441;-79
2022/11/01 12:46:35;;;;;;;7.60;2.93;;;17.20;99.90;;;;;;4920517;29;20396;-79
2022/11/01 12:49:09;;;;;;;9.53;2.73;;;17.30;99.90;;;;;;4920795;29;20479;-79
2022/11/01 12:51:42;;;;;;;9.13;2.10;;;17.30;99.90;;;;;;4922337;29;20431;-79
2022/11/01 12:54:15;;;;;;;11.50;3.30;;;17.30;99.90;;;;;;4919595;29;20939;-79
2022/11/01 12:56:44;;;;;;;10.53;2.63;;;17.40;99.90;;;;;;4919266;29;20464;-79
2022/11/01 12:59:21;;;;;;;9.23;2.50;;;17.40;99.90;;;;;;4923157;29;20432;-79
2022/11/01 13:01:59;;;;;;;7.53;2.97;;;17.50;99.90;;;;;;4921665;29;20477;-79
2022/11/01 13:04:33;;;;;;;8.03;3.50;;;17.50;99.90;;;;;;4921017;29;21065;-79
2022/11/01 13:07:22;;;;;;;11.80;2.93;;;17.50;99.90;;;;;;4920535;29;20519;-78
2022/11/01 13:10:01;;;;;;;7.03;2.23;;;17.50;99.90;;;;;;4920179;29;20821;-79